createdAt,value
2018-09-28T00:01:28.059Z,7.63
2018-09-28T00:06:25.519Z,7.58
2018-09-28T00:11:22.984Z,7.58
2018-09-28T00:16:20.479Z,8.16
2018-09-28T00:21:17.915Z,7.54
2018-09-28T00:26:15.401Z,7.56
2018-09-28T00:31:12.831Z,8.07
2018-09-28T00:36:10.288Z,7.97
2018-09-28T00:41:07.729Z,7.60
2018-09-28T00:46:05.149Z,7.35
2018-09-28T00:51:02.571Z,7.85
2018-09-28T00:56:00.055Z,7.48
2018-09-28T01:00:57.559Z,7.12
2018-09-28T01:05:55.005Z,7.02
2018-09-28T01:10:52.506Z,6.85
2018-09-28T01:15:50.195Z,7.19
2018-09-28T01:20:47.641Z,7.01
2018-09-28T01:25:45.208Z,6.80
2018-09-28T01:30:46.763Z,6.84
2018-09-28T01:35:44.272Z,6.81
2018-09-28T01:40:41.705Z,6.54
2018-09-28T01:45:39.176Z,6.44
2018-09-28T01:50:36.612Z,6.39
2018-09-28T01:55:34.100Z,6.70
2018-09-28T02:00:31.552Z,6.57
2018-09-28T02:05:29.011Z,6.41
2018-09-28T02:10:26.446Z,6.95
2018-09-28T02:15:23.864Z,6.89
2018-09-28T02:20:21.315Z,6.86
2018-09-28T02:25:18.784Z,7.25
2018-09-28T02:30:16.249Z,7.30
2018-09-28T02:35:13.697Z,7.91
2018-09-28T02:40:11.147Z,7.94
2018-09-28T02:45:08.591Z,7.91
2018-09-28T02:50:06.275Z,8.11
2018-09-28T02:55:03.760Z,8.45
2018-09-28T03:00:01.229Z,8.62
2018-09-28T03:04:58.652Z,8.79
2018-09-28T03:09:56.108Z,8.42
2018-09-28T03:14:53.568Z,8.96
2018-09-28T03:19:51.021Z,9.00
2018-09-28T03:24:48.529Z,9.14
2018-09-28T03:29:45.965Z,8.95
2018-09-28T03:34:43.389Z,8.91
2018-09-28T03:39:40.814Z,9.04
2018-09-28T03:44:38.257Z,9.13
2018-09-28T03:49:35.728Z,9.32
2018-09-28T03:54:34.218Z,9.34
2018-09-28T03:59:31.713Z,10.10
2018-09-28T04:04:29.117Z,9.86
2018-09-28T04:09:26.553Z,9.70
2018-09-28T04:14:23.989Z,9.62
2018-09-28T04:19:21.461Z,9.84
2018-09-28T04:24:22.985Z,9.91
2018-09-28T04:29:20.469Z,10.07
2018-09-28T04:34:17.969Z,10.67
2018-09-28T04:39:15.684Z,10.46
2018-09-28T04:44:13.226Z,10.21
2018-09-28T04:49:11.229Z,10.67
2018-09-28T04:54:13.710Z,10.44
2018-09-28T04:59:11.280Z,10.54
2018-09-28T05:04:08.780Z,10.49
2018-09-28T05:09:10.567Z,10.24
2018-09-28T05:14:08.148Z,10.17
2018-09-28T05:19:05.604Z,10.21
2018-09-28T05:24:11.434Z,10.74
2018-09-28T05:29:08.921Z,10.20
2018-09-28T05:34:06.438Z,10.09
2018-09-28T05:39:06.315Z,10.48
2018-09-28T05:44:03.874Z,10.24
2018-09-28T05:49:01.337Z,10.48
2018-09-28T05:54:28.956Z,10.68
2018-09-28T05:59:31.930Z,10.55
2018-09-28T06:05:37.700Z,10.62
2018-09-28T06:10:35.089Z,10.60
2018-09-28T06:15:32.553Z,10.65
2018-09-28T06:20:30.700Z,10.42
2018-09-28T06:25:28.408Z,10.52
2018-09-28T06:30:25.909Z,10.47
2018-09-28T06:35:23.370Z,10.72
2018-09-28T06:40:20.853Z,10.76
2018-09-28T06:45:18.325Z,10.78
2018-09-28T06:50:15.829Z,11.66
2018-09-28T06:55:13.298Z,11.98
2018-09-28T07:00:10.792Z,12.23
2018-09-28T07:05:08.238Z,12.43
2018-09-28T07:10:05.729Z,12.57
2018-09-28T07:15:03.281Z,12.64
2018-09-28T07:20:00.732Z,12.73
2018-09-28T07:24:59.365Z,12.79
2018-09-28T07:29:57.033Z,12.95
2018-09-28T07:34:54.356Z,13.01
2018-09-28T07:39:51.810Z,13.09
2018-09-28T07:44:49.285Z,13.48
2018-09-28T07:49:46.750Z,13.71
2018-09-28T07:54:45.403Z,13.66
2018-09-28T07:59:42.870Z,13.58
2018-09-28T08:04:40.311Z,13.61
2018-09-28T08:09:37.761Z,14.08
2018-09-28T08:14:35.221Z,13.93
2018-09-28T08:19:32.659Z,13.96
2018-09-28T08:24:36.276Z,14.11
2018-09-28T08:29:33.784Z,14.24
2018-09-28T08:34:31.314Z,14.20
2018-09-28T08:39:28.760Z,14.11
2018-09-28T08:44:26.199Z,14.13
2018-09-28T08:49:23.708Z,13.74
2018-09-28T08:54:28.698Z,13.52
2018-09-28T08:59:26.244Z,13.50
2018-09-28T09:04:23.764Z,13.77
2018-09-28T09:09:21.185Z,13.71
2018-09-28T09:14:18.630Z,13.89
2018-09-28T09:19:16.157Z,13.85
2018-09-28T09:24:17.891Z,14.08
2018-09-28T09:29:15.378Z,14.22
2018-09-28T09:34:13.001Z,14.16
2018-09-28T09:39:11.143Z,14.02
2018-09-28T09:44:08.783Z,14.34
2018-09-28T09:49:06.352Z,14.52
2018-09-28T09:54:07.324Z,14.40
2018-09-28T09:59:04.909Z,14.76
2018-09-28T10:04:08.233Z,15.03
2018-09-28T10:09:10.159Z,15.25
2018-09-28T10:14:07.641Z,14.90
2018-09-28T10:19:05.246Z,14.89
2018-09-28T10:24:05.161Z,14.80
2018-09-28T10:29:02.709Z,14.80
2018-09-28T10:34:00.172Z,14.90
2018-09-28T10:38:57.600Z,14.74
2018-09-28T10:43:55.064Z,14.78
2018-09-28T10:48:52.814Z,14.68
2018-09-28T10:53:56.132Z,15.12
2018-09-28T10:58:53.730Z,15.04
2018-09-28T11:03:51.176Z,15.37
2018-09-28T11:08:48.679Z,14.96
2018-09-28T11:13:46.133Z,15.23
2018-09-28T11:18:43.600Z,15.76
2018-09-28T11:23:42.039Z,16.40
2018-09-28T11:28:39.800Z,16.55
2018-09-28T11:33:37.288Z,16.42
2018-09-28T11:38:34.734Z,15.96
2018-09-28T11:43:32.184Z,15.73
2018-09-28T11:48:29.637Z,15.97
2018-09-28T11:53:27.106Z,16.50
2018-09-28T11:58:24.651Z,15.70
2018-09-28T12:03:23.954Z,15.57
2018-09-28T12:08:24.117Z,15.89
2018-09-28T12:13:23.669Z,15.64
2018-09-28T12:18:23.541Z,15.45
2018-09-28T12:23:26.039Z,15.41
2018-09-28T12:28:27.270Z,15.58
2018-09-28T12:33:28.590Z,15.54
2018-09-28T12:38:29.049Z,16.03
2018-09-28T12:43:35.028Z,16.12
2018-09-28T12:48:27.593Z,16.07
2018-09-28T12:53:30.693Z,16.16
2018-09-28T13:03:54.144Z,15.54
2018-09-28T13:09:05.837Z,15.03
2018-09-28T13:19:15.011Z,16.41
2018-09-28T13:24:19.582Z,16.62
2018-09-28T13:29:30.220Z,15.31
2018-09-28T13:34:31.543Z,14.96
2018-09-28T13:44:54.945Z,15.43
2018-09-28T13:49:57.587Z,15.54
2018-09-28T13:55:04.496Z,16.06
2018-09-28T14:00:19.067Z,16.16
2018-09-28T14:05:25.496Z,16.10
2018-09-28T14:10:27.975Z,16.07
2018-09-28T14:15:34.560Z,15.68
2018-09-28T14:20:34.183Z,16.05
2018-09-28T14:25:40.732Z,16.34
2018-09-28T14:30:40.043Z,15.98
2018-09-28T14:35:38.310Z,16.46
2018-09-28T14:40:37.639Z,15.20
2018-09-28T14:45:36.254Z,15.01
2018-09-28T14:50:34.688Z,14.98
2018-09-28T14:55:33.360Z,14.99
2018-09-28T15:00:34.584Z,14.71
2018-09-28T15:05:34.136Z,14.75
2018-09-28T15:10:33.126Z,14.72
2018-09-28T15:15:32.004Z,14.59
2018-09-28T15:20:30.766Z,14.69
2018-09-28T15:25:30.653Z,14.64
2018-09-28T15:30:29.033Z,14.52
2018-09-28T15:35:31.356Z,14.73
2018-09-28T15:40:30.027Z,14.61
2018-09-28T15:45:31.447Z,14.89
2018-09-28T15:50:29.703Z,14.86
2018-09-28T15:55:28.075Z,14.72
2018-09-28T16:00:28.364Z,14.81
2018-09-28T16:05:28.831Z,14.43
2018-09-28T16:10:27.276Z,13.96
2018-09-28T16:15:26.382Z,14.18
2018-09-28T16:20:25.213Z,14.03
2018-09-28T16:25:24.232Z,13.97
2018-09-28T16:30:23.905Z,14.01
2018-09-28T16:35:22.989Z,13.92
2018-09-28T16:40:24.822Z,13.74
2018-09-28T16:45:24.795Z,13.68
2018-09-28T16:50:26.283Z,13.64
2018-09-28T16:55:26.845Z,13.54
2018-09-28T17:00:31.253Z,13.30
2018-09-28T17:05:29.850Z,13.21
2018-09-28T17:10:32.988Z,13.13
2018-09-28T17:15:35.132Z,13.02
2018-09-28T17:20:34.936Z,12.97
2018-09-28T17:25:33.269Z,12.88
2018-09-28T17:30:32.709Z,12.82
2018-09-28T17:35:33.945Z,12.69
2018-09-28T17:40:32.462Z,12.71
2018-09-28T17:45:31.140Z,12.48
2018-09-28T17:50:30.363Z,12.34
2018-09-28T17:55:29.916Z,12.39
2018-09-28T18:00:30.053Z,12.38
2018-09-28T18:05:39.669Z,12.42
2018-09-28T18:10:40.100Z,12.28
2018-09-28T18:15:42.904Z,12.15
2018-09-28T18:20:45.354Z,12.05
2018-09-28T18:25:45.609Z,11.90
2018-09-28T18:30:47.807Z,12.02
2018-09-28T18:35:47.279Z,11.95
2018-09-28T18:40:51.782Z,11.97
2018-09-28T18:45:51.060Z,11.96
2018-09-28T18:50:50.770Z,11.99
2018-09-28T18:55:49.361Z,11.87
2018-09-28T19:00:47.730Z,11.80
2018-09-28T19:05:46.142Z,11.70
2018-09-28T19:10:44.751Z,11.57
2018-09-28T19:15:44.926Z,11.50
2018-09-28T19:20:42.814Z,11.46
2018-09-28T19:25:41.481Z,11.50
2018-09-28T19:30:39.856Z,11.32
2018-09-28T19:35:38.423Z,11.32
2018-09-28T19:40:36.952Z,11.19
2018-09-28T19:45:34.971Z,11.05
2018-09-28T19:50:35.558Z,11.08
2018-09-28T19:55:34.984Z,10.99
2018-09-28T20:00:33.038Z,10.87
2018-09-28T20:05:31.081Z,10.61
2018-09-28T20:10:29.663Z,10.61
2018-09-28T20:15:27.608Z,10.54
2018-09-28T20:20:26.052Z,10.56
2018-09-28T20:25:24.461Z,10.46
2018-09-28T20:30:23.824Z,10.37
2018-09-28T20:35:23.302Z,10.22
2018-09-28T20:40:21.517Z,10.01
2018-09-28T20:45:19.952Z,10.11
2018-09-28T20:50:26.827Z,10.15
2018-09-28T20:55:27.169Z,10.24
2018-09-28T21:00:31.463Z,10.00
2018-09-28T21:05:32.301Z,10.11
2018-09-28T21:10:32.594Z,10.32
2018-09-28T21:15:32.718Z,10.40
2018-09-28T21:20:31.360Z,10.17
2018-09-28T21:25:30.438Z,10.02
2018-09-28T21:30:29.016Z,9.87
2018-09-28T21:35:34.037Z,9.64
2018-09-28T21:40:32.753Z,9.15
2018-09-28T21:45:34.600Z,9.07
2018-09-28T21:50:36.473Z,8.96
2018-09-28T21:55:39.744Z,8.99
2018-09-28T22:00:40.047Z,8.93
2018-09-28T22:05:39.952Z,8.86
2018-09-28T22:10:40.273Z,9.06
2018-09-28T22:15:47.067Z,9.06
2018-09-28T22:20:46.961Z,8.70
2018-09-28T22:25:48.583Z,8.34
2018-09-28T22:30:53.250Z,7.66
2018-09-28T22:35:53.245Z,7.37
2018-09-28T22:40:53.796Z,6.97
2018-09-28T22:45:55.350Z,6.68
2018-09-28T22:51:01.726Z,6.50
2018-09-28T23:01:21.069Z,6.91
2018-09-28T23:06:28.250Z,6.29
2018-09-28T23:11:39.797Z,6.37
2018-09-28T23:16:48.652Z,6.04
2018-09-28T23:21:49.953Z,6.28
2018-09-28T23:26:49.890Z,6.33
2018-09-28T23:31:59.323Z,6.79
2018-09-28T23:37:04.327Z,7.13
2018-09-28T23:42:04.982Z,6.73
2018-09-28T23:47:26.024Z,6.94
2018-09-28T23:52:30.629Z,6.85
2018-09-28T23:57:36.783Z,6.69
